Time;durP1;ratioP1;P1;durP2;ratioP2;P2;SDS_P1;SDS_P2;PMS_P1;PMS_P2;Temp;Humidity;BMP_temperature;BMP_pressure;BME280_temperature;BME280_humidity;BME280_pressure;Samples;Min_cycle;Max_cycle;Signal;HPM_P1;HPM_P2
2023/04/21 00:01:01;;;;;;;19.25;15.13;;;;;8.30;98156.00;;;;5054191;28;20045;-59
2023/04/21 00:03:28;;;;;;;18.13;14.88;;;;;8.30;98153.00;;;;5055227;28;20040;-59
2023/04/21 00:05:57;;;;;;;21.33;15.85;;;;;8.30;98156.00;;;;5053079;28;20041;-60
2023/04/21 00:08:25;;;;;;;18.23;15.02;;;;;8.20;98157.00;;;;5052780;28;20040;-59
2023/04/21 00:10:52;;;;;;;19.83;15.02;;;;;8.30;98160.00;;;;5052485;28;20524;-64
2023/04/21 00:13:18;;;;;;;19.73;15.80;;;;;8.40;98146.00;;;;5053006;28;20041;-59
2023/04/21 00:15:45;;;;;;;21.15;15.27;;;;;8.30;98144.00;;;;5052822;28;20048;-61
2023/04/21 00:18:12;;;;;;;21.90;14.75;;;;;8.40;98153.00;;;;5052568;28;20067;-60
2023/04/21 00:20:39;;;;;;;20.77;16.08;;;;;8.50;98146.00;;;;5051588;28;20045;-60
2023/04/21 00:23:05;;;;;;;19.98;15.35;;;;;8.60;98144.00;;;;5052524;28;20045;-59
2023/04/21 00:25:32;;;;;;;20.23;15.77;;;;;8.60;98141.00;;;;5052674;28;20122;-59
2023/04/21 00:27:58;;;;;;;17.77;14.35;;;;;8.70;98137.00;;;;5052257;28;20452;-59
2023/04/21 00:30:25;;;;;;;18.58;14.63;;;;;8.70;98129.00;;;;5052496;28;20040;-60
2023/04/21 00:32:51;;;;;;;18.40;14.65;;;;;8.70;98131.00;;;;5052407;28;20052;-61
2023/04/21 00:35:18;;;;;;;19.10;14.40;;;;;8.70;98129.00;;;;5051259;28;20470;-60
2023/04/21 00:37:44;;;;;;;20.27;14.35;;;;;8.70;98131.00;;;;5052182;28;20049;-59
2023/04/21 00:40:12;;;;;;;19.75;15.13;;;;;8.60;98126.00;;;;5050661;28;20053;-60
2023/04/21 00:42:39;;;;;;;17.75;14.30;;;;;8.30;98119.00;;;;5050705;28;20107;-60
2023/04/21 00:45:06;;;;;;;20.42;15.65;;;;;8.10;98123.00;;;;5050916;28;20060;-60
2023/04/21 00:47:33;;;;;;;19.55;15.88;;;;;7.90;98118.00;;;;5052050;28;20045;-60
2023/04/21 00:49:59;;;;;;;20.02;15.35;;;;;7.80;98127.00;;;;5051891;28;20056;-60
2023/04/21 00:52:27;;;;;;;22.23;15.80;;;;;7.70;98119.00;;;;5051373;28;20055;-60
2023/04/21 00:54:54;;;;;;;21.75;15.98;;;;;7.70;98110.00;;;;5050906;28;20045;-59
2023/04/21 00:57:21;;;;;;;21.80;16.48;;;;;7.70;98114.00;;;;5051964;28;20410;-61
2023/04/21 00:59:48;;;;;;;22.33;16.05;;;;;7.80;98114.00;;;;5051784;28;20045;-61
2023/04/21 01:02:17;;;;;;;21.45;16.13;;;;;7.70;98103.00;;;;5052028;28;20131;-61
2023/04/21 01:04:46;;;;;;;21.70;16.48;;;;;7.80;98107.00;;;;5050744;28;20069;-61
2023/04/21 01:07:13;;;;;;;17.10;14.13;;;;;7.90;98104.00;;;;5052189;28;20071;-61
2023/04/21 01:09:39;;;;;;;20.85;16.35;;;;;7.80;98091.00;;;;5033954;28;20079;-61
2023/04/21 01:12:08;;;;;;;23.33;16.73;;;;;7.80;98104.00;;;;5051560;28;20040;-61
2023/04/21 01:14:36;;;;;;;23.90;17.10;;;;;7.70;98101.00;;;;5050956;28;20049;-61
2023/04/21 01:17:06;;;;;;;22.70;16.52;;;;;7.70;98100.00;;;;5051827;28;20098;-61
2023/04/21 01:19:40;;;;;;;19.67;15.20;;;;;7.70;98105.00;;;;5052853;28;20071;-60
2023/04/21 01:22:11;;;;;;;21.42;16.38;;;;;7.60;98097.00;;;;5051787;28;20052;-60
2023/04/21 01:24:43;;;;;;;22.10;16.10;;;;;7.60;98088.00;;;;5052861;28;20037;-61
2023/04/21 01:27:20;;;;;;;23.13;16.95;;;;;7.50;98101.00;;;;5051448;28;20517;-61
2023/04/21 01:29:49;;;;;;;22.30;16.67;;;;;7.50;98096.00;;;;5051328;28;20095;-60
2023/04/21 01:32:18;;;;;;;22.15;16.98;;;;;7.40;98094.00;;;;5051085;28;20041;-61
2023/04/21 01:34:46;;;;;;;22.27;16.45;;;;;7.40;98095.00;;;;5051241;28;20371;-61
2023/04/21 01:37:15;;;;;;;22.10;16.25;;;;;7.50;98098.00;;;;5052018;28;20444;-61
2023/04/21 01:39:45;;;;;;;21.58;16.10;;;;;7.50;98101.00;;;;5050364;28;20049;-61
2023/04/21 01:42:12;;;;;;;23.60;16.20;;;;;7.50;98105.00;;;;5050086;28;20049;-61
2023/04/21 01:44:40;;;;;;;20.50;14.95;;;;;7.50;98103.00;;;;5051687;28;20056;-61
2023/04/21 01:47:08;;;;;;;20.23;15.32;;;;;7.40;98091.00;;;;5050426;28;20091;-61
2023/04/21 01:49:35;;;;;;;20.10;14.45;;;;;7.30;98102.00;;;;5050365;28;20041;-61
2023/04/21 01:52:01;;;;;;;20.92;15.43;;;;;7.30;98096.00;;;;5050263;28;20049;-60
2023/04/21 01:54:28;;;;;;;22.17;15.85;;;;;7.40;98102.00;;;;5050482;28;20072;-60
2023/04/21 01:56:55;;;;;;;20.00;15.82;;;;;7.40;98099.00;;;;5050523;28;20405;-60
2023/04/21 01:59:21;;;;;;;20.63;15.02;;;;;7.30;98096.00;;;;5049973;28;20442;-60
2023/04/21 02:01:48;;;;;;;22.40;16.38;;;;;7.40;98100.00;;;;5050062;28;20429;-60
2023/04/21 02:04:15;;;;;;;19.65;15.55;;;;;7.40;98100.00;;;;5052438;28;20075;-60
2023/04/21 02:06:42;;;;;;;21.13;16.23;;;;;7.50;98090.00;;;;5053866;28;20414;-60
2023/04/21 02:09:09;;;;;;;20.30;15.10;;;;;7.50;98087.00;;;;5054856;28;20127;-60
2023/04/21 02:11:35;;;;;;;19.83;15.02;;;;;7.40;98104.00;;;;5053648;28;20685;-61
2023/04/21 02:14:02;;;;;;;19.08;14.63;;;;;7.40;98088.00;;;;5037287;28;20139;-61
2023/04/21 02:16:29;;;;;;;18.73;14.63;;;;;7.30;98095.00;;;;5053491;28;20505;-61
2023/04/21 02:18:56;;;;;;;21.08;15.50;;;;;7.20;98092.00;;;;5053112;28;20069;-60
2023/04/21 02:21:23;;;;;;;20.92;15.75;;;;;7.30;98095.00;;;;5053390;28;20045;-59
2023/04/21 02:23:50;;;;;;;20.35;15.02;;;;;7.30;98102.00;;;;5053503;28;20045;-59
2023/04/21 02:26:17;;;;;;;21.23;15.48;;;;;7.20;98099.00;;;;5053340;28;20055;-60
2023/04/21 02:28:44;;;;;;;18.60;14.93;;;;;7.10;98098.00;;;;5054171;28;20044;-59
2023/04/21 02:31:14;;;;;;;19.50;15.32;;;;;7.10;98107.00;;;;5054472;28;20091;-59
2023/04/21 02:33:40;;;;;;;18.80;14.18;;;;;7.10;98098.00;;;;5054549;28;20041;-59
2023/04/21 02:36:10;;;;;;;19.77;14.45;;;;;7.00;98104.00;;;;5054630;28;20037;-59
2023/04/21 02:38:36;;;;;;;21.50;15.70;;;;;6.90;98103.00;;;;5054073;28;20048;-60
2023/04/21 02:41:03;;;;;;;20.08;14.75;;;;;7.00;98110.00;;;;5052942;28;20051;-59
2023/04/21 02:43:29;;;;;;;18.63;14.63;;;;;7.10;98100.00;;;;5054032;28;20052;-60
2023/04/21 02:45:56;;;;;;;18.98;14.02;;;;;7.10;98104.00;;;;5054333;28;20103;-61
2023/04/21 02:48:22;;;;;;;18.00;14.32;;;;;7.10;98107.00;;;;5054070;28;20037;-60
2023/04/21 02:50:52;;;;;;;17.90;13.82;;;;;7.00;98105.00;;;;5052785;28;20144;-60
2023/04/21 02:53:19;;;;;;;19.15;14.77;;;;;7.00;98102.00;;;;5052994;28;20088;-60
2023/04/21 02:55:46;;;;;;;19.70;14.50;;;;;7.00;98104.00;;;;5054183;28;20076;-60
2023/04/21 02:58:12;;;;;;;19.40;14.85;;;;;6.90;98110.00;;;;5053833;28;20039;-61
2023/04/21 03:00:40;;;;;;;20.15;14.95;;;;;6.80;98105.00;;;;5053789;28;20416;-59
2023/04/21 03:03:07;;;;;;;20.58;15.35;;;;;6.70;98105.00;;;;5052749;28;20081;-60
2023/04/21 03:05:34;;;;;;;22.10;16.15;;;;;6.70;98101.00;;;;5052645;28;20045;-60
2023/04/21 03:08:00;;;;;;;21.38;15.35;;;;;6.70;98106.00;;;;5053866;28;20048;-59
2023/04/21 03:10:27;;;;;;;22.90;16.70;;;;;6.70;98107.00;;;;5053638;28;20494;-60
2023/04/21 03:12:55;;;;;;;23.65;15.27;;;;;6.70;98100.00;;;;5036117;28;20510;-60
2023/04/21 03:15:22;;;;;;;21.73;16.23;;;;;6.80;98119.00;;;;5052940;28;20091;-60
2023/04/21 03:17:49;;;;;;;20.75;15.63;;;;;6.90;98116.00;;;;5052211;28;20049;-60
2023/04/21 03:20:16;;;;;;;21.52;16.27;;;;;7.00;98112.00;;;;5053481;28;20053;-59
2023/04/21 03:22:43;;;;;;;21.25;15.48;;;;;7.10;98114.00;;;;5052295;28;20044;-59
2023/04/21 03:25:10;;;;;;;21.70;15.15;;;;;7.20;98118.00;;;;5052264;28;20044;-60
2023/04/21 03:27:37;;;;;;;20.60;16.00;;;;;7.10;98127.00;;;;5053390;28;20041;-60
2023/04/21 03:30:05;;;;;;;19.30;15.13;;;;;7.00;98126.00;;;;5053389;28;20041;-60
2023/04/21 03:32:32;;;;;;;22.38;15.18;;;;;7.00;98117.00;;;;5052153;28;20048;-59
2023/04/21 03:34:58;;;;;;;20.70;15.40;;;;;7.00;98110.00;;;;5053385;28;20049;-60
2023/04/21 03:37:25;;;;;;;19.48;15.65;;;;;7.00;98116.00;;;;5053655;28;20124;-60
2023/04/21 03:39:52;;;;;;;21.63;15.85;;;;;7.10;98119.00;;;;5051722;28;20045;-59
2023/04/21 03:42:19;;;;;;;22.27;16.73;;;;;7.10;98117.00;;;;5051876;28;20515;-60
2023/04/21 03:44:45;;;;;;;22.83;16.90;;;;;7.10;98119.00;;;;5053840;28;20055;-61
2023/04/21 03:47:12;;;;;;;23.85;17.52;;;;;7.20;98109.00;;;;5054815;28;20051;-60
2023/04/21 03:49:38;;;;;;;23.25;17.13;;;;;7.30;98109.00;;;;5054073;28;20052;-60
2023/04/21 03:52:05;;;;;;;21.35;15.70;;;;;7.20;98102.00;;;;5052396;28;20053;-60
2023/04/21 03:54:31;;;;;;;21.40;15.82;;;;;7.20;98098.00;;;;5051731;28;20099;-59
2023/04/21 03:56:58;;;;;;;21.73;16.55;;;;;7.40;98108.00;;;;5053106;28;20067;-60
2023/04/21 03:59:24;;;;;;;22.73;16.90;;;;;7.40;98098.00;;;;5051549;28;20068;-60
2023/04/21 04:01:51;;;;;;;21.60;15.05;;;;;7.40;98090.00;;;;5051708;28;20049;-60
2023/04/21 04:04:17;;;;;;;21.25;15.27;;;;;7.30;98092.00;;;;5052694;28;20048;-60
2023/04/21 04:06:44;;;;;;;20.25;14.60;;;;;7.20;98100.00;;;;5051442;28;20051;-59
2023/04/21 04:09:11;;;;;;;21.83;15.70;;;;;7.20;98089.00;;;;5052596;28;20037;-59
2023/04/21 04:11:37;;;;;;;22.52;15.75;;;;;7.30;98091.00;;;;5051389;28;20052;-60
2023/04/21 04:14:04;;;;;;;20.65;15.70;;;;;7.30;98086.00;;;;5051444;28;20055;-60
2023/04/21 04:16:33;;;;;;;21.55;15.73;;;;;7.30;98088.00;;;;5051482;28;20095;-59
2023/04/21 04:19:00;;;;;;;20.08;15.32;;;;;7.30;98087.00;;;;5052302;28;20040;-60
2023/04/21 04:21:27;;;;;;;23.20;16.85;;;;;7.30;98085.00;;;;5052350;28;20059;-60
2023/04/21 04:23:54;;;;;;;24.55;16.75;;;;;7.40;98095.00;;;;5052445;28;20510;-61
2023/04/21 04:26:23;;;;;;;21.27;16.05;;;;;7.40;98093.00;;;;5051681;28;20048;-60
2023/04/21 04:28:55;;;;;;;23.02;15.68;;;;;7.30;98086.00;;;;5051970;28;20399;-61
2023/04/21 04:31:24;;;;;;;26.70;19.33;;;;;7.30;98090.00;;;;5052288;28;20041;-61
2023/04/21 04:33:51;;;;;;;23.85;16.98;;;;;7.30;98089.00;;;;5051985;28;20049;-61
2023/04/21 04:36:21;;;;;;;21.77;16.83;;;;;7.30;98089.00;;;;5052227;28;20098;-61
2023/04/21 04:38:48;;;;;;;23.05;16.67;;;;;7.20;98091.00;;;;5051899;28;20044;-61
2023/04/21 04:41:15;;;;;;;22.27;16.25;;;;;7.30;98097.00;;;;5051902;28;20501;-61
2023/04/21 04:43:42;;;;;;;23.17;16.42;;;;;7.30;98086.00;;;;5052308;28;20072;-61
2023/04/21 04:46:11;;;;;;;21.77;15.13;;;;;7.40;98087.00;;;;5051869;28;20048;-61
2023/04/21 04:48:38;;;;;;;23.08;15.40;;;;;7.40;98096.00;;;;5052064;28;20598;-61
2023/04/21 04:51:05;;;;;;;21.02;15.25;;;;;7.40;98091.00;;;;5051888;28;20036;-61
2023/04/21 04:53:31;;;;;;;22.15;15.63;;;;;7.40;98084.00;;;;5052035;28;20037;-61
2023/04/21 04:55:58;;;;;;;20.52;15.40;;;;;7.30;98091.00;;;;5051322;28;20041;-60
2023/04/21 04:58:24;;;;;;;19.95;15.45;;;;;7.40;98094.00;;;;5051972;28;20049;-61
2023/04/21 05:00:51;;;;;;;19.92;15.82;;;;;7.50;98085.00;;;;5051713;28;20516;-61
2023/04/21 05:03:17;;;;;;;24.85;18.33;;;;;7.60;98092.00;;;;5051800;28;20048;-60
2023/04/21 05:05:45;;;;;;;22.38;16.02;;;;;7.50;98096.00;;;;5051955;28;20509;-60
2023/04/21 05:08:11;;;;;;;24.23;17.33;;;;;7.50;98097.00;;;;5051977;28;20041;-61
2023/04/21 05:10:39;;;;;;;23.23;16.90;;;;;7.40;98096.00;;;;5051814;28;20063;-62
2023/04/21 05:13:05;;;;;;;25.13;17.95;;;;;7.40;98093.00;;;;5051640;28;20045;-60
2023/04/21 05:15:32;;;;;;;27.58;18.55;;;;;7.40;98101.00;;;;5051859;28;20045;-60
2023/04/21 05:17:58;;;;;;;24.27;17.73;;;;;7.50;98094.00;;;;5052940;28;20049;-60
2023/04/21 05:20:25;;;;;;;24.88;17.05;;;;;7.60;98103.00;;;;5052621;28;20045;-61
2023/04/21 05:22:51;;;;;;;22.15;16.67;;;;;7.50;98103.00;;;;5052652;28;20378;-60
2023/04/21 05:25:18;;;;;;;22.27;16.15;;;;;7.40;98100.00;;;;5052332;28;20056;-60
2023/04/21 05:27:44;;;;;;;24.58;17.52;;;;;7.40;98108.00;;;;5051954;28;20048;-59
2023/04/21 05:30:11;;;;;;;25.25;18.05;;;;;7.50;98101.00;;;;5050358;28;20048;-59
2023/04/21 05:32:37;;;;;;;23.25;17.58;;;;;7.60;98111.00;;;;5051727;28;20087;-59
2023/04/21 05:35:05;;;;;;;24.40;19.13;;;;;7.50;98113.00;;;;5051918;28;20037;-60
2023/04/21 05:37:31;;;;;;;27.02;19.20;;;;;7.50;98111.00;;;;5052244;28;20048;-61
2023/04/21 05:39:58;;;;;;;24.80;18.85;;;;;7.50;98103.00;;;;5055901;28;20094;-60
2023/04/21 05:42:24;;;;;;;28.67;19.90;;;;;7.50;98111.00;;;;5056043;28;20044;-61
2023/04/21 05:44:51;;;;;;;29.00;18.83;;;;;7.50;98122.00;;;;5056503;28;20508;-60
2023/04/21 05:47:17;;;;;;;31.83;21.92;;;;;7.70;98118.00;;;;5056725;28;20045;-60
2023/04/21 05:49:48;;;;;;;26.95;19.08;;;;;7.80;98131.00;;;;5056406;28;20049;-60
2023/04/21 05:52:16;;;;;;;28.23;18.98;;;;;7.80;98128.00;;;;5055638;28;20056;-59
2023/04/21 05:54:43;;;;;;;26.38;19.08;;;;;7.90;98128.00;;;;5055482;28;20045;-59
2023/04/21 05:57:09;;;;;;;28.33;19.73;;;;;7.90;98134.00;;;;5055546;28;20071;-59
2023/04/21 05:59:36;;;;;;;27.83;19.20;;;;;8.00;98127.00;;;;5055159;28;20068;-61
2023/04/21 06:02:03;;;;;;;24.67;18.20;;;;;8.10;98132.00;;;;5055520;28;20052;-60
2023/04/21 06:04:30;;;;;;;25.50;18.13;;;;;8.30;98134.00;;;;5055378;28;20103;-60
2023/04/21 06:06:57;;;;;;;24.35;17.42;;;;;8.40;98135.00;;;;5055868;28;20514;-61
2023/04/21 06:09:23;;;;;;;27.13;17.73;;;;;8.40;98136.00;;;;5055524;28;20045;-60
2023/04/21 06:11:49;;;;;;;25.23;17.80;;;;;8.30;98137.00;;;;5055611;28;20137;-61
2023/04/21 06:14:16;;;;;;;25.38;17.42;;;;;8.30;98134.00;;;;5055719;28;20041;-61
2023/04/21 06:16:43;;;;;;;22.13;17.15;;;;;8.40;98137.00;;;;5054914;28;20041;-62
2023/04/21 06:19:10;;;;;;;22.77;16.63;;;;;8.40;98128.00;;;;5054446;28;20068;-60
2023/04/21 06:21:36;;;;;;;21.33;16.70;;;;;8.40;98131.00;;;;5054914;28;20037;-61
2023/04/21 06:24:03;;;;;;;21.45;15.50;;;;;8.50;98123.00;;;;5053882;28;20077;-61
2023/04/21 06:26:29;;;;;;;23.40;16.73;;;;;8.50;98124.00;;;;5054779;28;20044;-61
2023/04/21 06:28:56;;;;;;;20.15;16.10;;;;;8.60;98120.00;;;;5053182;28;20064;-60
2023/04/21 06:31:22;;;;;;;23.20;17.02;;;;;8.60;98124.00;;;;5054499;28;20063;-61
2023/04/21 06:33:49;;;;;;;23.05;16.92;;;;;8.70;98133.00;;;;5054476;28;20052;-61
2023/04/21 06:36:15;;;;;;;23.33;17.10;;;;;8.80;98126.00;;;;5054303;28;20407;-61
2023/04/21 06:38:43;;;;;;;22.00;16.90;;;;;8.90;98131.00;;;;5054030;28;20041;-61
2023/04/21 06:41:10;;;;;;;24.15;16.98;;;;;9.00;98132.00;;;;5054244;28;20095;-61
2023/04/21 06:43:36;;;;;;;21.42;14.25;;;;;9.00;98133.00;;;;5054357;28;20040;-61
2023/04/21 06:46:03;;;;;;;22.85;16.75;;;;;9.10;98135.00;;;;5054249;28;20056;-61
2023/04/21 06:48:30;;;;;;;23.27;16.25;;;;;9.10;98135.00;;;;5054026;28;20560;-60
2023/04/21 06:50:56;;;;;;;25.67;17.33;;;;;9.10;98140.00;;;;5052986;28;20044;-61
2023/04/21 06:53:23;;;;;;;24.27;16.67;;;;;9.10;98138.00;;;;5054130;28;20116;-61
2023/04/21 06:55:52;;;;;;;23.23;15.05;;;;;9.20;98141.00;;;;5054082;28;20045;-60
2023/04/21 06:58:19;;;;;;;24.98;17.38;;;;;9.30;98153.00;;;;5053915;28;20124;-62
2023/04/21 07:00:46;;;;;;;23.85;16.58;;;;;9.30;98152.00;;;;5053758;28;20040;-61
2023/04/21 07:03:13;;;;;;;22.13;14.32;;;;;9.40;98145.00;;;;5052396;28;20056;-61
2023/04/21 07:05:40;;;;;;;22.55;16.58;;;;;9.50;98141.00;;;;5053990;28;20182;-60
2023/04/21 07:08:06;;;;;;;22.45;16.45;;;;;9.50;98150.00;;;;5053785;28;20406;-60
2023/04/21 07:10:33;;;;;;;18.08;13.93;;;;;9.50;98150.00;;;;5053649;28;20049;-61
2023/04/21 07:12:59;;;;;;;20.40;15.13;;;;;9.60;98150.00;;;;5053754;28;20045;-61
2023/04/21 07:15:26;;;;;;;19.02;13.98;;;;;9.70;98148.00;;;;5053985;28;20091;-61
2023/04/21 07:17:52;;;;;;;17.27;13.38;;;;;9.70;98143.00;;;;5054140;28;20064;-60
2023/04/21 07:20:19;;;;;;;17.77;13.43;;;;;9.80;98156.00;;;;5053358;28;20037;-60
2023/04/21 07:22:46;;;;;;;19.50;13.18;;;;;9.70;98157.00;;;;5053437;28;20126;-60
2023/04/21 07:25:12;;;;;;;14.45;12.05;;;;;9.70;98153.00;;;;5053490;28;20044;-60
2023/04/21 07:27:39;;;;;;;14.73;12.32;;;;;9.80;98155.00;;;;5053399;28;20053;-60
2023/04/21 07:30:06;;;;;;;17.00;11.68;;;;;9.80;98145.00;;;;5053289;28;20045;-60
2023/04/21 07:32:33;;;;;;;15.35;11.90;;;;;9.70;98138.00;;;;5052247;28;20095;-61
2023/04/21 07:35:01;;;;;;;22.27;16.27;;;;;9.70;98147.00;;;;5053250;28;20057;-60
2023/04/21 07:37:28;;;;;;;20.83;14.45;;;;;9.80;98142.00;;;;5053354;28;20454;-60
2023/04/21 07:39:54;;;;;;;17.30;12.23;;;;;10.00;98152.00;;;;5051764;28;20567;-61
2023/04/21 07:42:21;;;;;;;17.00;11.55;;;;;9.90;98131.00;;;;5053048;28;20052;-60
2023/04/21 07:44:48;;;;;;;12.82;10.20;;;;;10.00;98141.00;;;;5053258;28;20045;-61
2023/04/21 07:47:14;;;;;;;13.55;10.57;;;;;10.10;98133.00;;;;5051970;28;20037;-61
2023/04/21 07:49:41;;;;;;;14.05;10.65;;;;;10.30;98139.00;;;;5052750;28;20053;-60
2023/04/21 07:52:07;;;;;;;11.65;9.43;;;;;10.40;98132.00;;;;5035343;28;20068;-61
2023/04/21 07:54:34;;;;;;;12.32;9.65;;;;;10.50;98126.00;;;;5052898;28;20045;-61
2023/04/21 07:57:01;;;;;;;11.65;8.85;;;;;10.50;98130.00;;;;5052824;28;20045;-60
2023/04/21 07:59:28;;;;;;;11.27;9.05;;;;;10.60;98130.00;;;;5051528;28;20045;-60
2023/04/21 08:01:55;;;;;;;10.68;8.20;;;;;10.70;98133.00;;;;5052415;28;20037;-61
2023/04/21 08:04:21;;;;;;;9.10;7.57;;;;;10.80;98128.00;;;;5052779;28;20490;-60
2023/04/21 08:06:49;;;;;;;9.88;7.95;;;;;10.90;98131.00;;;;5052719;28;20045;-60
2023/04/21 08:09:15;;;;;;;9.15;8.10;;;;;11.10;98133.00;;;;5052437;28;20048;-60
2023/04/21 08:11:42;;;;;;;11.48;8.23;;;;;11.30;98128.00;;;;5052831;28;20123;-61
2023/04/21 08:14:10;;;;;;;9.60;7.72;;;;;11.40;98119.00;;;;5052695;28;20043;-61
2023/04/21 08:16:37;;;;;;;8.18;7.25;;;;;11.50;98124.00;;;;5052503;28;20449;-61
2023/04/21 08:19:05;;;;;;;8.32;7.47;;;;;11.50;98120.00;;;;5052368;28;20049;-60
2023/04/21 08:21:32;;;;;;;11.55;8.48;;;;;11.60;98119.00;;;;5052799;28;20037;-61
2023/04/21 08:23:59;;;;;;;12.55;8.93;;;;;11.70;98112.00;;;;5053591;28;20167;-60
2023/04/21 08:26:26;;;;;;;15.48;10.07;;;;;11.80;98110.00;;;;5053728;28;20041;-60
2023/04/21 08:28:53;;;;;;;12.25;7.88;;;;;11.90;98110.00;;;;5052114;28;20139;-59
2023/04/21 08:31:19;;;;;;;10.70;7.95;;;;;11.90;98109.00;;;;5052442;28;20041;-60
2023/04/21 08:33:46;;;;;;;8.75;5.95;;;;;12.00;98113.00;;;;5052370;28;20486;-60
2023/04/21 08:36:27;;;;;;;7.32;5.68;;;;;12.10;98097.00;;;;5052585;28;20110;-61
2023/04/21 08:38:55;;;;;;;7.85;5.72;;;;;12.20;98101.00;;;;5052244;28;20528;-61
2023/04/21 08:41:23;;;;;;;5.78;5.18;;;;;12.20;98097.00;;;;5052241;28;20098;-61
2023/04/21 08:43:49;;;;;;;5.18;4.57;;;;;12.20;98096.00;;;;5052133;28;20036;-61
2023/04/21 08:46:17;;;;;;;8.55;6.82;;;;;12.30;98095.00;;;;5050995;28;20053;-60
2023/04/21 08:48:45;;;;;;;6.05;4.85;;;;;12.50;98093.00;;;;5051843;28;20107;-59
2023/04/21 08:51:19;;;;;;;5.82;4.75;;;;;12.60;98094.00;;;;5051994;28;20437;-59
2023/04/21 08:53:46;;;;;;;;;;;;;12.70;98084.00;;;;5052544;28;20041;-60
2023/04/21 08:56:12;;;;;;;4.20;3.70;;;;;12.90;98090.00;;;;5050796;28;19970;-61
2023/04/21 08:58:40;;;;;;;4.80;3.85;;;;;12.90;98080.00;;;;5051911;28;20044;-59
2023/04/21 09:01:06;;;;;;;4.50;3.75;;;;;13.00;98082.00;;;;5050677;28;20041;-59
2023/04/21 09:03:33;;;;;;;4.25;3.85;;;;;13.10;98085.00;;;;5052088;28;20041;-60
2023/04/21 09:06:04;;;;;;;4.15;3.55;;;;;13.30;98087.00;;;;5051985;28;20040;-61
2023/04/21 09:08:33;;;;;;;4.28;3.13;;;;;13.30;98087.00;;;;5051851;28;20045;-61
2023/04/21 09:11:00;;;;;;;3.92;3.53;;;;;13.30;98079.00;;;;5051816;28;20095;-60
2023/04/21 09:13:35;;;;;;;3.85;3.38;;;;;13.30;98084.00;;;;5051905;28;20041;-62
2023/04/21 09:16:15;;;;;;;3.90;2.72;;;;;13.40;98090.00;;;;5054868;28;20494;-59
2023/04/21 09:18:43;;;;;;;3.38;3.08;;;;;13.60;98085.00;;;;5055892;28;20110;-60
2023/04/21 09:21:12;;;;;;;3.70;3.35;;;;;13.60;98084.00;;;;5038049;28;20049;-60
2023/04/21 09:23:42;;;;;;;4.88;3.58;;;;;13.60;98082.00;;;;5055917;28;20049;-60
2023/04/21 09:26:09;;;;;;;4.28;3.28;;;;;13.70;98076.00;;;;5055923;28;20056;-62
2023/04/21 09:28:39;;;;;;;2.88;2.63;;;;;13.90;98075.00;;;;5055589;28;20052;-60
2023/04/21 09:31:16;;;;;;;3.03;2.70;;;;;14.10;98074.00;;;;5055728;28;20040;-62
2023/04/21 09:33:45;;;;;;;3.28;2.80;;;;;14.10;98070.00;;;;5055514;28;20132;-61
2023/04/21 09:36:28;;;;;;;3.38;2.50;;;;;14.40;98072.00;;;;5055774;28;20052;-59
2023/04/21 09:38:55;;;;;;;2.60;2.40;;;;;14.30;98062.00;;;;5055484;28;20102;-60
2023/04/21 09:41:43;;;;;;;2.55;2.30;;;;;14.50;98061.00;;;;5055616;28;20387;-59
2023/04/21 09:44:09;;;;;;;3.22;2.17;;;;;14.70;98058.00;;;;5055502;28;20052;-59
2023/04/21 09:46:36;;;;;;;2.28;1.67;;;;;14.70;98057.00;;;;5055697;28;20045;-59
2023/04/21 09:49:04;;;;;;;2.78;2.10;;;;;14.60;98061.00;;;;5055380;28;20529;-59
2023/04/21 09:51:31;;;;;;;2.53;1.70;;;;;14.70;98059.00;;;;5055671;28;20049;-59
2023/04/21 09:54:19;;;;;;;3.72;1.85;;;;;14.90;98064.00;;;;5055780;28;20084;-59
2023/04/21 09:57:01;;;;;;;1.70;1.60;;;;;15.00;98053.00;;;;5054562;28;20048;-61
2023/04/21 09:59:35;;;;;;;1.83;1.73;;;;;15.10;98060.00;;;;5055725;28;20036;-62
2023/04/21 10:02:05;;;;;;;1.65;1.52;;;;;15.20;98046.00;;;;5055455;28;20049;-62
2023/04/21 10:04:35;;;;;;;1.50;1.40;;;;;15.40;98051.00;;;;5053974;28;20505;-61
2023/04/21 10:07:02;;;;;;;1.40;1.30;;;;;15.40;98049.00;;;;5055292;28;20060;-57
2023/04/21 10:09:44;;;;;;;2.45;1.35;;;;;15.40;98052.00;;;;5055039;28;20049;-59
2023/04/21 10:12:12;;;;;;;1.40;1.27;;;;;15.40;98042.00;;;;5054071;28;20470;-55
2023/04/21 10:14:39;;;;;;;0.90;0.90;;;;;15.60;98043.00;;;;5055413;28;20052;-54
2023/04/21 10:17:11;;;;;;;2.95;1.88;;;;;15.60;98043.00;;;;5055407;28;20606;-57
2023/04/21 10:19:49;;;;;;;1.45;1.10;;;;;15.70;98038.00;;;;5055220;28;20200;-59
2023/04/21 10:22:26;;;;;;;1.10;1.00;;;;;15.90;98038.00;;;;5054816;28;20159;-60
2023/04/21 10:24:55;;;;;;;1.25;1.13;;;;;15.80;98028.00;;;;5055372;28;20048;-59
2023/04/21 10:27:44;;;;;;;1.20;1.10;;;;;15.80;98024.00;;;;5055442;28;20110;-62
2023/04/21 10:30:21;;;;;;;1.30;1.08;;;;;15.90;98007.00;;;;5054820;28;20494;-61
2023/04/21 10:33:00;;;;;;;1.10;1.00;;;;;16.00;98013.00;;;;5053759;28;20565;-61
2023/04/21 10:35:58;;;;;;;2.10;0.98;;;;;16.10;98009.00;;;;5054923;28;20132;-60
2023/04/21 10:38:33;;;;;;;1.92;1.13;;;;;16.00;98002.00;;;;5055066;28;20048;-60
2023/04/21 10:41:31;;;;;;;1.33;0.90;;;;;16.20;98009.00;;;;5054583;28;20052;-60
2023/04/21 10:44:11;;;;;;;1.48;1.27;;;;;16.20;97992.00;;;;5055537;28;20056;-61
2023/04/21 10:46:49;;;;;;;1.92;0.80;;;;;16.40;98002.00;;;;5055249;28;20494;-60
2023/04/21 10:49:29;;;;;;;1.80;0.90;;;;;16.30;97993.00;;;;5055332;28;20132;-62
2023/04/21 10:54:26;;;;;;;1.38;0.98;;;;;16.30;97983.00;;;;5057599;28;20099;-61
2023/04/21 10:56:58;;;;;;;1.60;0.93;;;;;16.50;97986.00;;;;5055484;28;20548;-62
2023/04/21 10:59:26;;;;;;;1.00;0.90;;;;;16.60;97973.00;;;;5054963;28;20045;-63
2023/04/21 11:01:53;;;;;;;3.17;1.27;;;;;16.80;97978.00;;;;5054904;28;20041;-63
2023/04/21 11:04:20;;;;;;;2.00;1.50;;;;;16.90;97976.00;;;;5054490;28;20045;-61
2023/04/21 11:07:09;;;;;;;2.40;1.80;;;;;16.80;97968.00;;;;5054965;28;20049;-63
2023/04/21 11:09:37;;;;;;;2.00;1.15;;;;;17.00;97973.00;;;;5055596;28;20041;-62
2023/04/21 11:12:06;;;;;;;2.30;1.17;;;;;17.00;97971.00;;;;5055078;28;20444;-62
2023/04/21 11:14:34;;;;;;;1.55;1.45;;;;;17.20;97981.00;;;;5053586;28;20119;-62
2023/04/21 11:17:03;;;;;;;1.52;1.42;;;;;17.50;97975.00;;;;5055190;28;20045;-62
2023/04/21 11:19:33;;;;;;;0.93;0.93;;;;;17.50;97968.00;;;;5054543;28;20077;-63
2023/04/21 11:21:59;;;;;;;0.82;0.82;;;;;17.50;97974.00;;;;5054419;28;20040;-61
2023/04/21 11:24:26;;;;;;;1.20;0.88;;;;;17.70;97964.00;;;;5054850;28;20053;-62
2023/04/21 11:26:52;;;;;;;2.58;0.73;;;;;17.70;97965.00;;;;5054433;28;20060;-61
2023/04/21 11:29:19;;;;;;;1.65;0.90;;;;;17.90;97956.00;;;;5053683;28;20453;-62
2023/04/21 11:31:47;;;;;;;0.70;0.70;;;;;18.00;97948.00;;;;5054111;28;20041;-62
2023/04/21 11:34:15;;;;;;;1.52;0.90;;;;;18.10;97965.00;;;;5053834;28;20049;-61
2023/04/21 11:36:43;;;;;;;1.42;1.08;;;;;18.20;97955.00;;;;5053049;28;20075;-62
2023/04/21 11:39:14;;;;;;;1.50;1.00;;;;;18.40;97951.00;;;;5053266;28;20051;-63
2023/04/21 11:41:46;;;;;;;0.90;0.90;;;;;18.30;97952.00;;;;5053285;28;20444;-61
2023/04/21 11:44:29;;;;;;;0.90;0.90;;;;;18.30;97953.00;;;;5052347;28;20090;-62
2023/04/21 11:46:55;;;;;;;0.80;0.75;;;;;18.30;97954.00;;;;5053463;28;20067;-62
2023/04/21 11:49:26;;;;;;;0.73;0.73;;;;;18.30;97953.00;;;;5052925;28;20099;-62
2023/04/21 11:51:53;;;;;;;1.05;0.63;;;;;18.50;97950.00;;;;5053212;28;20094;-60
2023/04/21 11:54:21;;;;;;;1.80;1.20;;;;;18.60;97956.00;;;;5053121;28;20098;-60
2023/04/21 11:56:48;;;;;;;1.67;0.90;;;;;18.50;97940.00;;;;5051837;28;20494;-63
2023/04/21 11:59:18;;;;;;;1.25;1.15;;;;;18.70;97944.00;;;;5034964;28;20433;-63
2023/04/21 12:01:49;;;;;;;1.75;1.00;;;;;18.90;97937.00;;;;5052731;28;20037;-62
2023/04/21 12:04:20;;;;;;;0.98;0.88;;;;;19.10;97944.00;;;;5052951;28;20494;-62
2023/04/21 12:06:56;;;;;;;1.13;1.02;;;;;19.30;97940.00;;;;5052981;28;20045;-63
2023/04/21 12:09:23;;;;;;;1.92;1.80;;;;;19.30;97938.00;;;;5052629;28;20045;-63
2023/04/21 12:11:51;;;;;;;1.45;1.30;;;;;19.30;97942.00;;;;5052934;28;20164;-62
2023/04/21 12:14:20;;;;;;;0.90;0.80;;;;;19.40;97934.00;;;;5052969;28;20045;-61
2023/04/21 12:16:54;;;;;;;1.33;1.23;;;;;19.60;97946.00;;;;5052628;28;20476;-63
2023/04/21 12:19:41;;;;;;;1.27;1.10;;;;;19.60;97942.00;;;;5052495;28;20052;-62